aviador You're here:

EVRA Decoded Metar

RIGA AIRPORT in LATVIA
Report Time2018-01-23 07:50:00
UTC Time2018-01-23 08:01:42
Flight Rules ifr IFR
Wind200° at 10 kt
W.Decomp.*RWY 18: 9.7 kt HW 2.2 kt RCW
W.Rank200° ranks 3
Current wind is above 200° avg. (7.0)
Visibility9000 m
Phenomena:N/A
Clouds:Overcast 006 Hf
Ceiling600 ft
Temp-8°C (ISA -23)
Dew Point-8°C (100% RH)
AAT-14.5°C
QNH1024 hPa
Density Alt-3,153 ft
Elevation33 ft
Report Wrong Elevation
Raw Report
EVRA 230750Z 20010KT 9000 OVC006 M08/M08 Q1024 R18/490195
NOSIG=

Extra information for EVRA:More info

Metar Taf Metar & Taf Last 4 Metars F.Rules Stats Wind Profile Meteogram Temp Stats Airport Information Weather charts Add Link Nearby VenuesMetar ALERT Operation Metar Decoded Social comments